sensor_id;sensor_type;location;lat;lon;timestamp;pressure;altitude;pressure_sealevel;temperature;humidity
57024;BME280;42916;54.346;18.562;2023-01-26T00:01:23;101197.88;;;-2.61;99.85
57024;BME280;42916;54.346;18.562;2023-01-26T00:03:50;101195.48;;;-2.60;99.97
57024;BME280;42916;54.346;18.562;2023-01-26T00:06:19;101189.83;;;-2.58;99.98
57024;BME280;42916;54.346;18.562;2023-01-26T00:08:49;101183.23;;;-2.55;99.97
57024;BME280;42916;54.346;18.562;2023-01-26T00:11:18;101177.80;;;-2.52;99.95
57024;BME280;42916;54.346;18.562;2023-01-26T00:13:49;101170.17;;;-2.52;99.90
57024;BME280;42916;54.346;18.562;2023-01-26T00:16:16;101166.75;;;-2.50;99.96
57024;BME280;42916;54.346;18.562;2023-01-26T00:18:43;101168.52;;;-2.46;100.00
57024;BME280;42916;54.346;18.562;2023-01-26T00:21:15;101171.27;;;-2.45;100.00
57024;BME280;42916;54.346;18.562;2023-01-26T00:23:42;101177.50;;;-2.45;99.99
57024;BME280;42916;54.346;18.562;2023-01-26T00:26:15;101179.88;;;-2.44;100.00
57024;BME280;42916;54.346;18.562;2023-01-26T00:28:42;101179.52;;;-2.44;99.98
57024;BME280;42916;54.346;18.562;2023-01-26T00:31:15;101171.70;;;-2.46;99.94
57024;BME280;42916;54.346;18.562;2023-01-26T00:33:42;101171.84;;;-2.46;100.00
57024;BME280;42916;54.346;18.562;2023-01-26T00:36:10;101169.30;;;-2.49;99.86
57024;BME280;42916;54.346;18.562;2023-01-26T00:38:38;101167.70;;;-2.49;100.00
57024;BME280;42916;54.346;18.562;2023-01-26T00:41:06;101169.98;;;-2.44;100.00
57024;BME280;42916;54.346;18.562;2023-01-26T00:43:33;101167.77;;;-2.42;100.00
57024;BME280;42916;54.346;18.562;2023-01-26T00:45:59;101160.33;;;-2.40;100.00
57024;BME280;42916;54.346;18.562;2023-01-26T00:48:26;101167.05;;;-2.40;100.00
57024;BME280;42916;54.346;18.562;2023-01-26T00:50:53;101162.20;;;-2.40;99.98
57024;BME280;42916;54.346;18.562;2023-01-26T00:53:20;101156.41;;;-2.37;100.00
57024;BME280;42916;54.346;18.562;2023-01-26T00:55:47;101150.06;;;-2.32;100.00
57024;BME280;42916;54.346;18.562;2023-01-26T00:58:13;101142.99;;;-2.29;100.00
57024;BME280;42916;54.346;18.562;2023-01-26T01:00:40;101140.70;;;-2.27;100.00
57024;BME280;42916;54.346;18.562;2023-01-26T01:03:07;101136.63;;;-2.29;100.00
57024;BME280;42916;54.346;18.562;2023-01-26T01:05:34;101130.34;;;-2.32;100.00
57024;BME280;42916;54.346;18.562;2023-01-26T01:08:01;101127.75;;;-2.31;100.00
57024;BME280;42916;54.346;18.562;2023-01-26T01:10:28;101124.56;;;-2.29;100.00
57024;BME280;42916;54.346;18.562;2023-01-26T01:12:55;101125.86;;;-2.28;100.00
57024;BME280;42916;54.346;18.562;2023-01-26T01:15:23;101120.89;;;-2.24;100.00
57024;BME280;42916;54.346;18.562;2023-01-26T01:17:50;101114.48;;;-2.22;100.00
57024;BME280;42916;54.346;18.562;2023-01-26T01:20:18;101113.99;;;-2.21;100.00
57024;BME280;42916;54.346;18.562;2023-01-26T01:22:45;101118.98;;;-2.23;100.00
57024;BME280;42916;54.346;18.562;2023-01-26T01:25:12;101120.70;;;-2.26;100.00
57024;BME280;42916;54.346;18.562;2023-01-26T01:27:39;101118.94;;;-2.28;100.00
57024;BME280;42916;54.346;18.562;2023-01-26T01:30:07;101115.21;;;-2.28;100.00
57024;BME280;42916;54.346;18.562;2023-01-26T01:32:34;101111.95;;;-2.28;100.00
57024;BME280;42916;54.346;18.562;2023-01-26T01:35:02;101109.88;;;-2.24;100.00
57024;BME280;42916;54.346;18.562;2023-01-26T01:37:29;101111.71;;;-2.19;100.00
57024;BME280;42916;54.346;18.562;2023-01-26T01:39:56;101111.69;;;-2.16;100.00
57024;BME280;42916;54.346;18.562;2023-01-26T01:42:24;101115.20;;;-2.15;100.00
57024;BME280;42916;54.346;18.562;2023-01-26T01:47:46;101112.59;;;-2.14;100.00
57024;BME280;42916;54.346;18.562;2023-01-26T01:50:15;101113.39;;;-2.15;100.00
57024;BME280;42916;54.346;18.562;2023-01-26T01:52:44;101113.92;;;-2.15;100.00
57024;BME280;42916;54.346;18.562;2023-01-26T01:55:14;101109.33;;;-2.14;100.00
57024;BME280;42916;54.346;18.562;2023-01-26T01:57:47;101103.18;;;-2.11;100.00
57024;BME280;42916;54.346;18.562;2023-01-26T02:00:20;101099.35;;;-2.06;100.00
57024;BME280;42916;54.346;18.562;2023-01-26T02:02:53;101089.98;;;-2.03;100.00
57024;BME280;42916;54.346;18.562;2023-01-26T02:06:21;101089.61;;;-2.01;100.00
57024;BME280;42916;54.346;18.562;2023-01-26T02:08:55;101085.64;;;-2.04;100.00
57024;BME280;42916;54.346;18.562;2023-01-26T02:11:32;101080.88;;;-2.08;100.00
57024;BME280;42916;54.346;18.562;2023-01-26T02:14:07;101080.82;;;-2.11;100.00
57024;BME280;42916;54.346;18.562;2023-01-26T02:16:35;101075.18;;;-2.13;100.00
57024;BME280;42916;54.346;18.562;2023-01-26T02:19:11;101073.95;;;-2.12;100.00
57024;BME280;42916;54.346;18.562;2023-01-26T02:21:41;101072.23;;;-2.09;100.00
57024;BME280;42916;54.346;18.562;2023-01-26T02:24:19;101075.39;;;-2.06;100.00
57024;BME280;42916;54.346;18.562;2023-01-26T02:26:47;101072.46;;;-2.06;100.00
57024;BME280;42916;54.346;18.562;2023-01-26T02:29:14;101069.52;;;-2.08;100.00
57024;BME280;42916;54.346;18.562;2023-01-26T02:31:43;101067.42;;;-2.12;99.98
57024;BME280;42916;54.346;18.562;2023-01-26T02:34:10;101065.65;;;-2.14;100.00
57024;BME280;42916;54.346;18.562;2023-01-26T02:36:37;101059.58;;;-2.14;100.00
57024;BME280;42916;54.346;18.562;2023-01-26T02:41:38;101051.30;;;-2.15;99.99
57024;BME280;42916;54.346;18.562;2023-01-26T02:44:24;101040.48;;;-2.11;100.00
57024;BME280;42916;54.346;18.562;2023-01-26T02:46:52;101042.67;;;-2.10;100.00
57024;BME280;42916;54.346;18.562;2023-01-26T02:49:20;101037.42;;;-2.07;100.00
57024;BME280;42916;54.346;18.562;2023-01-26T02:52:05;101041.58;;;-2.04;100.00
57024;BME280;42916;54.346;18.562;2023-01-26T02:54:33;101040.83;;;-2.02;100.00
57024;BME280;42916;54.346;18.562;2023-01-26T02:57:19;101037.54;;;-2.01;100.00
57024;BME280;42916;54.346;18.562;2023-01-26T02:59:46;101032.92;;;-2.03;100.00
57024;BME280;42916;54.346;18.562;2023-01-26T03:02:14;101033.02;;;-2.04;100.00
57024;BME280;42916;54.346;18.562;2023-01-26T03:04:41;101033.77;;;-2.06;100.00
57024;BME280;42916;54.346;18.562;2023-01-26T03:07:09;101036.69;;;-2.09;100.00
57024;BME280;42916;54.346;18.562;2023-01-26T03:09:36;101044.23;;;-2.11;100.00
57024;BME280;42916;54.346;18.562;2023-01-26T03:12:03;101042.00;;;-2.10;100.00
57024;BME280;42916;54.346;18.562;2023-01-26T03:14:30;101040.06;;;-2.11;100.00
57024;BME280;42916;54.346;18.562;2023-01-26T03:16:57;101040.23;;;-2.10;100.00
57024;BME280;42916;54.346;18.562;2023-01-26T03:19:24;101039.08;;;-2.10;100.00
57024;BME280;42916;54.346;18.562;2023-01-26T03:22:10;101036.48;;;-2.10;99.97
57024;BME280;42916;54.346;18.562;2023-01-26T03:25:13;101036.20;;;-2.16;99.95
57024;BME280;42916;54.346;18.562;2023-01-26T03:27:59;101039.00;;;-2.19;100.00
57024;BME280;42916;54.346;18.562;2023-01-26T03:30:25;101039.05;;;-2.20;100.00
57024;BME280;42916;54.346;18.562;2023-01-26T03:32:52;101037.48;;;-2.18;100.00
57024;BME280;42916;54.346;18.562;2023-01-26T03:35:19;101037.48;;;-2.18;100.00
57024;BME280;42916;54.346;18.562;2023-01-26T03:37:48;101036.47;;;-2.17;100.00
57024;BME280;42916;54.346;18.562;2023-01-26T03:40:27;101039.42;;;-2.22;100.00
57024;BME280;42916;54.346;18.562;2023-01-26T03:43:13;101040.02;;;-2.28;100.00
57024;BME280;42916;54.346;18.562;2023-01-26T03:46:03;101034.00;;;-2.26;100.00
57024;BME280;42916;54.346;18.562;2023-01-26T03:48:49;101028.91;;;-2.21;100.00
57024;BME280;42916;54.346;18.562;2023-01-26T03:51:35;101021.16;;;-2.18;100.00
57024;BME280;42916;54.346;18.562;2023-01-26T03:54:21;101019.49;;;-2.19;100.00
57024;BME280;42916;54.346;18.562;2023-01-26T03:57:06;101024.20;;;-2.28;100.00
57024;BME280;42916;54.346;18.562;2023-01-26T03:59:33;101023.71;;;-2.31;100.00
57024;BME280;42916;54.346;18.562;2023-01-26T04:02:09;101025.45;;;-2.33;100.00
57024;BME280;42916;54.346;18.562;2023-01-26T04:04:56;101017.46;;;-2.33;100.00
57024;BME280;42916;54.346;18.562;2023-01-26T04:07:45;101021.23;;;-2.30;100.00
57024;BME280;42916;54.346;18.562;2023-01-26T04:10:31;101014.87;;;-2.23;100.00
57024;BME280;42916;54.346;18.562;2023-01-26T04:12:59;101015.39;;;-2.19;100.00
57024;BME280;42916;54.346;18.562;2023-01-26T04:15:51;101014.36;;;-2.16;100.00
57024;BME280;42916;54.346;18.562;2023-01-26T04:18:37;101009.23;;;-2.13;100.00
57024;BME280;42916;54.346;18.562;2023-01-26T04:21:22;101010.28;;;-2.11;100.00
57024;BME280;42916;54.346;18.562;2023-01-26T04:23:54;101013.79;;;-2.09;100.00
57024;BME280;42916;54.346;18.562;2023-01-26T04:26:23;101010.52;;;-2.06;100.00
57024;BME280;42916;54.346;18.562;2023-01-26T04:28:50;101003.67;;;-2.07;100.00
57024;BME280;42916;54.346;18.562;2023-01-26T04:31:17;101000.34;;;-2.13;100.00
57024;BME280;42916;54.346;18.562;2023-01-26T04:33:47;100998.48;;;-2.17;100.00
57024;BME280;42916;54.346;18.562;2023-01-26T04:36:14;100994.24;;;-2.17;100.00
57024;BME280;42916;54.346;18.562;2023-01-26T04:38:45;100995.95;;;-2.17;100.00
57024;BME280;42916;54.346;18.562;2023-01-26T04:41:15;100987.46;;;-2.19;100.00
57024;BME280;42916;54.346;18.562;2023-01-26T04:43:46;100986.70;;;-2.22;100.00
57024;BME280;42916;54.346;18.562;2023-01-26T04:46:14;100991.48;;;-2.25;100.00
57024;BME280;42916;54.346;18.562;2023-01-26T04:48:41;100997.50;;;-2.30;100.00
57024;BME280;42916;54.346;18.562;2023-01-26T04:51:12;101002.98;;;-2.34;100.00
57024;BME280;42916;54.346;18.562;2023-01-26T04:53:40;101001.45;;;-2.36;100.00
57024;BME280;42916;54.346;18.562;2023-01-26T04:56:17;100997.27;;;-2.37;100.00
57024;BME280;42916;54.346;18.562;2023-01-26T04:58:45;100993.74;;;-2.39;100.00
57024;BME280;42916;54.346;18.562;2023-01-26T05:01:12;100993.63;;;-2.38;100.00
57024;BME280;42916;54.346;18.562;2023-01-26T05:03:39;100993.85;;;-2.38;100.00
57024;BME280;42916;54.346;18.562;2023-01-26T05:06:06;100994.09;;;-2.37;100.00
57024;BME280;42916;54.346;18.562;2023-01-26T05:08:35;100992.82;;;-2.37;100.00
57024;BME280;42916;54.346;18.562;2023-01-26T05:11:02;100996.88;;;-2.33;100.00
57024;BME280;42916;54.346;18.562;2023-01-26T05:13:59;100995.02;;;-2.31;100.00
57024;BME280;42916;54.346;18.562;2023-01-26T05:16:44;100989.27;;;-2.30;100.00
57024;BME280;42916;54.346;18.562;2023-01-26T05:19:49;100986.71;;;-2.29;100.00
57024;BME280;42916;54.346;18.562;2023-01-26T05:22:31;100991.47;;;-2.31;100.00
57024;BME280;42916;54.346;18.562;2023-01-26T05:25:33;100991.69;;;-2.33;100.00
57024;BME280;42916;54.346;18.562;2023-01-26T05:28:07;100998.84;;;-2.33;100.00
57024;BME280;42916;54.346;18.562;2023-01-26T05:30:34;100999.72;;;-2.31;100.00
57024;BME280;42916;54.346;18.562;2023-01-26T05:33:03;101000.05;;;-2.31;100.00
57024;BME280;42916;54.346;18.562;2023-01-26T05:35:32;101006.94;;;-2.33;100.00
57024;BME280;42916;54.346;18.562;2023-01-26T05:37:59;101002.23;;;-2.34;100.00
57024;BME280;42916;54.346;18.562;2023-01-26T05:40:27;101006.11;;;-2.37;100.00
57024;BME280;42916;54.346;18.562;2023-01-26T05:42:54;101006.16;;;-2.39;100.00
57024;BME280;42916;54.346;18.562;2023-01-26T05:45:59;101003.42;;;-2.40;100.00
57024;BME280;42916;54.346;18.562;2023-01-26T05:48:26;101006.08;;;-2.41;100.00
57024;BME280;42916;54.346;18.562;2023-01-26T05:50:55;101009.15;;;-2.40;100.00
57024;BME280;42916;54.346;18.562;2023-01-26T05:53:22;101011.79;;;-2.40;100.00
57024;BME280;42916;54.346;18.562;2023-01-26T05:55:49;101006.66;;;-2.39;100.00
57024;BME280;42916;54.346;18.562;2023-01-26T05:58:18;101012.98;;;-2.40;100.00
57024;BME280;42916;54.346;18.562;2023-01-26T06:00:45;101009.81;;;-2.42;100.00
57024;BME280;42916;54.346;18.562;2023-01-26T06:03:18;101012.11;;;-2.41;100.00
57024;BME280;42916;54.346;18.562;2023-01-26T06:06:00;101007.17;;;-2.38;100.00
57024;BME280;42916;54.346;18.562;2023-01-26T06:08:53;101005.55;;;-2.36;100.00
57024;BME280;42916;54.346;18.562;2023-01-26T06:11:32;101005.94;;;-2.35;100.00
57024;BME280;42916;54.346;18.562;2023-01-26T06:14:10;101007.29;;;-2.32;100.00
57024;BME280;42916;54.346;18.562;2023-01-26T06:16:37;101005.95;;;-2.32;100.00
57024;BME280;42916;54.346;18.562;2023-01-26T06:19:05;101007.05;;;-2.32;100.00
57024;BME280;42916;54.346;18.562;2023-01-26T06:21:33;101012.98;;;-2.31;100.00
57024;BME280;42916;54.346;18.562;2023-01-26T06:23:59;101011.64;;;-2.32;100.00
57024;BME280;42916;54.346;18.562;2023-01-26T06:26:27;101011.58;;;-2.31;100.00
57024;BME280;42916;54.346;18.562;2023-01-26T06:28:55;101008.63;;;-2.30;100.00
57024;BME280;42916;54.346;18.562;2023-01-26T06:31:23;101010.27;;;-2.29;100.00
57024;BME280;42916;54.346;18.562;2023-01-26T06:33:50;101016.48;;;-2.25;100.00
57024;BME280;42916;54.346;18.562;2023-01-26T06:36:17;101014.29;;;-2.21;100.00
57024;BME280;42916;54.346;18.562;2023-01-26T06:38:49;101008.77;;;-2.17;100.00
57024;BME280;42916;54.346;18.562;2023-01-26T06:41:18;101005.95;;;-2.17;100.00
57024;BME280;42916;54.346;18.562;2023-01-26T06:43:46;101008.83;;;-2.16;100.00
57024;BME280;42916;54.346;18.562;2023-01-26T06:46:15;101006.80;;;-2.15;100.00
57024;BME280;42916;54.346;18.562;2023-01-26T06:48:44;101003.10;;;-2.15;100.00
57024;BME280;42916;54.346;18.562;2023-01-26T06:53:46;101008.58;;;-2.12;100.00
57024;BME280;42916;54.346;18.562;2023-01-26T06:56:30;101012.77;;;-2.15;100.00
57024;BME280;42916;54.346;18.562;2023-01-26T06:59:11;101006.88;;;-2.16;100.00
57024;BME280;42916;54.346;18.562;2023-01-26T07:02:19;101005.42;;;-2.16;100.00
57024;BME280;42916;54.346;18.562;2023-01-26T07:04:47;100999.05;;;-2.16;100.00
57024;BME280;42916;54.346;18.562;2023-01-26T07:07:14;100998.55;;;-2.16;100.00
57024;BME280;42916;54.346;18.562;2023-01-26T07:09:41;101000.79;;;-2.17;100.00
57024;BME280;42916;54.346;18.562;2023-01-26T07:12:08;100996.91;;;-2.19;100.00
57024;BME280;42916;54.346;18.562;2023-01-26T07:14:35;100998.48;;;-2.17;100.00
57024;BME280;42916;54.346;18.562;2023-01-26T07:17:02;100993.06;;;-2.15;100.00
57024;BME280;42916;54.346;18.562;2023-01-26T07:19:29;100987.45;;;-2.10;100.00
57024;BME280;42916;54.346;18.562;2023-01-26T07:21:59;100989.59;;;-2.05;100.00
57024;BME280;42916;54.346;18.562;2023-01-26T07:24:26;100986.96;;;-1.99;100.00
57024;BME280;42916;54.346;18.562;2023-01-26T07:26:53;100987.30;;;-1.95;100.00
57024;BME280;42916;54.346;18.562;2023-01-26T07:29:20;100990.09;;;-1.91;100.00
57024;BME280;42916;54.346;18.562;2023-01-26T07:31:47;100989.83;;;-1.86;100.00
57024;BME280;42916;54.346;18.562;2023-01-26T07:34:14;100988.77;;;-1.83;100.00
57024;BME280;42916;54.346;18.562;2023-01-26T07:36:41;100987.98;;;-1.79;100.00
57024;BME280;42916;54.346;18.562;2023-01-26T07:39:08;100987.58;;;-1.74;100.00
57024;BME280;42916;54.346;18.562;2023-01-26T07:41:35;100984.24;;;-1.67;100.00
57024;BME280;42916;54.346;18.562;2023-01-26T07:44:11;100983.89;;;-1.62;100.00
57024;BME280;42916;54.346;18.562;2023-01-26T07:46:37;100984.94;;;-1.58;100.00
57024;BME280;42916;54.346;18.562;2023-01-26T07:49:05;100982.91;;;-1.55;100.00
57024;BME280;42916;54.346;18.562;2023-01-26T07:51:32;100982.67;;;-1.56;100.00
57024;BME280;42916;54.346;18.562;2023-01-26T07:53:59;100977.97;;;-1.57;100.00
57024;BME280;42916;54.346;18.562;2023-01-26T07:56:26;100979.45;;;-1.57;100.00
57024;BME280;42916;54.346;18.562;2023-01-26T07:58:54;100973.13;;;-1.58;100.00
57024;BME280;42916;54.346;18.562;2023-01-26T08:01:21;100964.90;;;-1.56;100.00
57024;BME280;42916;54.346;18.562;2023-01-26T08:03:50;100964.05;;;-1.53;100.00
57024;BME280;42916;54.346;18.562;2023-01-26T08:06:19;100963.63;;;-1.48;100.00
57024;BME280;42916;54.346;18.562;2023-01-26T08:08:48;100963.12;;;-1.49;100.00
57024;BME280;42916;54.346;18.562;2023-01-26T08:11:20;100967.77;;;-1.46;100.00
57024;BME280;42916;54.346;18.562;2023-01-26T08:13:51;100962.27;;;-1.42;100.00
57024;BME280;42916;54.346;18.562;2023-01-26T08:16:17;100965.64;;;-1.39;100.00
57024;BME280;42916;54.346;18.562;2023-01-26T08:18:45;100960.02;;;-1.33;100.00
57024;BME280;42916;54.346;18.562;2023-01-26T08:21:14;100958.23;;;-1.33;100.00
57024;BME280;42916;54.346;18.562;2023-01-26T08:23:41;100957.55;;;-1.35;100.00
57024;BME280;42916;54.346;18.562;2023-01-26T08:26:11;100953.55;;;-1.31;100.00
57024;BME280;42916;54.346;18.562;2023-01-26T08:28:39;100950.50;;;-1.26;100.00
57024;BME280;42916;54.346;18.562;2023-01-26T08:31:09;100950.80;;;-1.22;100.00
57024;BME280;42916;54.346;18.562;2023-01-26T08:33:41;100949.77;;;-1.20;100.00
57024;BME280;42916;54.346;18.562;2023-01-26T08:36:11;100953.21;;;-1.19;100.00
57024;BME280;42916;54.346;18.562;2023-01-26T08:38:39;100954.73;;;-1.19;100.00
57024;BME280;42916;54.346;18.562;2023-01-26T08:41:06;100954.75;;;-1.17;100.00
57024;BME280;42916;54.346;18.562;2023-01-26T08:43:34;100957.29;;;-1.19;100.00
57024;BME280;42916;54.346;18.562;2023-01-26T08:46:01;100960.11;;;-1.21;100.00
57024;BME280;42916;54.346;18.562;2023-01-26T08:48:28;100961.52;;;-1.21;100.00
57024;BME280;42916;54.346;18.562;2023-01-26T08:51:00;100965.83;;;-1.18;100.00
57024;BME280;42916;54.346;18.562;2023-01-26T08:53:32;100959.20;;;-1.16;100.00
57024;BME280;42916;54.346;18.562;2023-01-26T08:56:03;100956.56;;;-1.12;100.00
57024;BME280;42916;54.346;18.562;2023-01-26T08:58:31;100955.52;;;-1.09;100.00
57024;BME280;42916;54.346;18.562;2023-01-26T09:01:03;100953.89;;;-1.06;100.00
57024;BME280;42916;54.346;18.562;2023-01-26T09:03:30;100952.03;;;-1.10;100.00
57024;BME280;42916;54.346;18.562;2023-01-26T09:06:00;100952.82;;;-1.10;100.00
57024;BME280;42916;54.346;18.562;2023-01-26T09:08:27;100948.71;;;-1.09;100.00
57024;BME280;42916;54.346;18.562;2023-01-26T09:10:54;100946.10;;;-1.09;100.00
57024;BME280;42916;54.346;18.562;2023-01-26T09:13:22;100942.91;;;-1.08;100.00
57024;BME280;42916;54.346;18.562;2023-01-26T09:15:49;100943.71;;;-1.04;100.00
57024;BME280;42916;54.346;18.562;2023-01-26T09:18:15;100944.52;;;-1.00;100.00
57024;BME280;42916;54.346;18.562;2023-01-26T09:20:43;100939.82;;;-0.92;100.00
57024;BME280;42916;54.346;18.562;2023-01-26T09:23:10;100938.91;;;-0.87;100.00
57024;BME280;42916;54.346;18.562;2023-01-26T09:25:38;100938.16;;;-0.84;100.00
57024;BME280;42916;54.346;18.562;2023-01-26T09:28:06;100937.45;;;-0.80;100.00
57024;BME280;42916;54.346;18.562;2023-01-26T09:30:33;100938.86;;;-0.83;100.00
57024;BME280;42916;54.346;18.562;2023-01-26T09:33:01;100932.95;;;-0.82;100.00
57024;BME280;42916;54.346;18.562;2023-01-26T09:35:28;100938.48;;;-0.80;100.00
57024;BME280;42916;54.346;18.562;2023-01-26T09:37:56;100936.74;;;-0.84;100.00
57024;BME280;42916;54.346;18.562;2023-01-26T09:40:44;100938.81;;;-0.85;100.00
57024;BME280;42916;54.346;18.562;2023-01-26T09:43:20;100942.61;;;-0.84;100.00
57024;BME280;42916;54.346;18.562;2023-01-26T09:56:53;100933.50;;;-0.79;100.00
57024;BME280;42916;54.346;18.562;2023-01-26T09:59:35;100934.42;;;-0.79;100.00
57024;BME280;42916;54.346;18.562;2023-01-26T10:04:44;100923.52;;;-0.71;100.00
57024;BME280;42916;54.346;18.562;2023-01-26T10:07:14;100927.98;;;-0.67;100.00
57024;BME280;42916;54.346;18.562;2023-01-26T10:09:46;100927.35;;;-0.68;100.00
57024;BME280;42916;54.346;18.562;2023-01-26T10:12:22;100929.70;;;-0.63;100.00
57024;BME280;42916;54.346;18.562;2023-01-26T10:14:55;100934.39;;;-0.61;100.00
57024;BME280;42916;54.346;18.562;2023-01-26T10:17:31;100939.94;;;-0.61;100.00
57024;BME280;42916;54.346;18.562;2023-01-26T10:22:51;100933.52;;;-0.59;100.00
57024;BME280;42916;54.346;18.562;2023-01-26T10:25:24;100922.77;;;-0.59;100.00
57024;BME280;42916;54.346;18.562;2023-01-26T10:27:53;100920.17;;;-0.61;100.00
57024;BME280;42916;54.346;18.562;2023-01-26T10:30:20;100919.01;;;-0.65;100.00
57024;BME280;42916;54.346;18.562;2023-01-26T10:32:50;100923.18;;;-0.70;100.00
57024;BME280;42916;54.346;18.562;2023-01-26T10:35:21;100927.45;;;-0.70;100.00
57024;BME280;42916;54.346;18.562;2023-01-26T10:37:48;100927.12;;;-0.65;100.00
57024;BME280;42916;54.346;18.562;2023-01-26T10:40:18;100924.29;;;-0.67;100.00
57024;BME280;42916;54.346;18.562;2023-01-26T10:42:56;100921.23;;;-0.69;100.00
57024;BME280;42916;54.346;18.562;2023-01-26T10:45:27;100924.21;;;-0.67;100.00
57024;BME280;42916;54.346;18.562;2023-01-26T10:48:21;100923.91;;;-0.62;100.00
57024;BME280;42916;54.346;18.562;2023-01-26T10:50:50;100924.16;;;-0.55;100.00
57024;BME280;42916;54.346;18.562;2023-01-26T10:53:25;100923.03;;;-0.54;100.00
57024;BME280;42916;54.346;18.562;2023-01-26T10:56:04;100923.36;;;-0.56;100.00
57024;BME280;42916;54.346;18.562;2023-01-26T10:58:49;100923.30;;;-0.55;100.00
57024;BME280;42916;54.346;18.562;2023-01-26T11:01:18;100925.63;;;-0.52;100.00
57024;BME280;42916;54.346;18.562;2023-01-26T11:04:05;100924.63;;;-0.51;100.00
57024;BME280;42916;54.346;18.562;2023-01-26T11:06:33;100920.23;;;-0.58;100.00
57024;BME280;42916;54.346;18.562;2023-01-26T11:09:26;100919.17;;;-0.63;100.00
57024;BME280;42916;54.346;18.562;2023-01-26T11:11:58;100920.44;;;-0.65;100.00
57024;BME280;42916;54.346;18.562;2023-01-26T11:14:27;100917.10;;;-0.70;100.00
57024;BME280;42916;54.346;18.562;2023-01-26T11:19:35;100909.45;;;-0.72;100.00
57024;BME280;42916;54.346;18.562;2023-01-26T11:22:09;100905.95;;;-0.63;100.00
57024;BME280;42916;54.346;18.562;2023-01-26T11:27:42;100907.83;;;-0.54;100.00
57024;BME280;42916;54.346;18.562;2023-01-26T11:30:26;100901.70;;;-0.53;100.00
57024;BME280;42916;54.346;18.562;2023-01-26T11:33:11;100897.30;;;-0.52;100.00
57024;BME280;42916;54.346;18.562;2023-01-26T11:36:21;100891.02;;;-0.52;100.00
57024;BME280;42916;54.346;18.562;2023-01-26T11:38:40;100891.40;;;-0.55;100.00
57024;BME280;42916;54.346;18.562;2023-01-26T11:56:54;100869.93;;;-0.61;100.00
57024;BME280;42916;54.346;18.562;2023-01-26T11:59:47;100868.95;;;-0.57;100.00
57024;BME280;42916;54.346;18.562;2023-01-26T12:02:24;100874.91;;;-0.64;100.00
57024;BME280;42916;54.346;18.562;2023-01-26T12:04:55;100872.59;;;-0.69;100.00
57024;BME280;42916;54.346;18.562;2023-01-26T12:07:30;100867.08;;;-0.72;100.00
57024;BME280;42916;54.346;18.562;2023-01-26T12:10:01;100871.00;;;-0.79;100.00
57024;BME280;42916;54.346;18.562;2023-01-26T12:12:39;100864.09;;;-0.79;100.00
57024;BME280;42916;54.346;18.562;2023-01-26T12:15:21;100862.45;;;-0.79;100.00
57024;BME280;42916;54.346;18.562;2023-01-26T12:18:03;100869.52;;;-0.78;100.00
57024;BME280;42916;54.346;18.562;2023-01-26T12:20:38;100871.20;;;-0.82;100.00
57024;BME280;42916;54.346;18.562;2023-01-26T12:23:30;100864.86;;;-0.88;100.00
57024;BME280;42916;54.346;18.562;2023-01-26T12:26:05;100861.83;;;-0.89;100.00
57024;BME280;42916;54.346;18.562;2023-01-26T12:28:39;100856.46;;;-0.89;100.00
57024;BME280;42916;54.346;18.562;2023-01-26T12:31:21;100847.80;;;-0.86;100.00
57024;BME280;42916;54.346;18.562;2023-01-26T12:33:50;100849.04;;;-0.83;100.00
57024;BME280;42916;54.346;18.562;2023-01-26T12:39:43;100835.89;;;-0.85;100.00
57024;BME280;42916;54.346;18.562;2023-01-26T12:45:39;100831.02;;;-0.96;100.00
57024;BME280;42916;54.346;18.562;2023-01-26T12:48:31;100829.86;;;-0.95;100.00
57024;BME280;42916;54.346;18.562;2023-01-26T12:51:08;100825.36;;;-0.88;100.00
57024;BME280;42916;54.346;18.562;2023-01-26T12:53:58;100825.14;;;-0.84;100.00
57024;BME280;42916;54.346;18.562;2023-01-26T12:56:44;100825.27;;;-0.78;100.00
57024;BME280;42916;54.346;18.562;2023-01-26T12:59:27;100828.39;;;-0.77;100.00
57024;BME280;42916;54.346;18.562;2023-01-26T13:01:56;100827.00;;;-0.77;100.00
57024;BME280;42916;54.346;18.562;2023-01-26T13:04:24;100825.94;;;-0.75;100.00
57024;BME280;42916;54.346;18.562;2023-01-26T13:07:33;100818.25;;;-0.72;100.00
57024;BME280;42916;54.346;18.562;2023-01-26T13:15:26;100810.96;;;-0.67;100.00
57024;BME280;42916;54.346;18.562;2023-01-26T13:18:00;100808.94;;;-0.69;100.00
57024;BME280;42916;54.346;18.562;2023-01-26T13:29:25;100803.84;;;-0.73;100.00
57024;BME280;42916;54.346;18.562;2023-01-26T13:34:52;100798.98;;;-0.70;100.00
57024;BME280;42916;54.346;18.562;2023-01-26T13:40:05;100802.73;;;-0.73;100.00
57024;BME280;42916;54.346;18.562;2023-01-26T13:48:11;100802.68;;;-0.73;100.00
57024;BME280;42916;54.346;18.562;2023-01-26T13:50:40;100803.60;;;-0.71;100.00
57024;BME280;42916;54.346;18.562;2023-01-26T13:53:34;100800.47;;;-0.75;100.00
57024;BME280;42916;54.346;18.562;2023-01-26T13:56:05;100802.37;;;-0.77;100.00
57024;BME280;42916;54.346;18.562;2023-01-26T13:58:33;100806.98;;;-0.78;100.00
57024;BME280;42916;54.346;18.562;2023-01-26T14:01:03;100815.42;;;-0.79;100.00
57024;BME280;42916;54.346;18.562;2023-01-26T14:03:30;100813.58;;;-0.78;100.00
57024;BME280;42916;54.346;18.562;2023-01-26T14:06:13;100819.95;;;-0.78;100.00
57024;BME280;42916;54.346;18.562;2023-01-26T14:08:51;100821.70;;;-0.74;100.00
57024;BME280;42916;54.346;18.562;2023-01-26T14:11:21;100821.95;;;-0.71;100.00
57024;BME280;42916;54.346;18.562;2023-01-26T14:13:55;100817.95;;;-0.71;100.00
57024;BME280;42916;54.346;18.562;2023-01-26T14:16:49;100813.50;;;-0.69;100.00